Ogallala, NE

6:13 PM MDT on July 21, 2017 (GMT -0600)
Searle

Weather History for KOGA - April, 2014

Change the Weather History Date:

Wednesday, April 9, 2014

  Actual Average Record
Temperature  
Mean Temperature 56 °F -  
Max Temperature 83 °F 57 °F 84 °F (2011)
Min Temperature 30 °F 29 °F 15 °F (1982)
Degree Days  
Heating Degree Days 9    
Growing Degree Days 6 (Base 50)    
Moisture  
Dew Point 27 °F    
Average Humidity 40    
Maximum Humidity 79    
Minimum Humidity 11    
Precipitation  
Precipitation 0.00 in - - ()
Sea Level Pressure  
Sea Level Pressure 29.85 in    
Wind  
Wind Speed 8 mph (West)    
Max Wind Speed 28 mph    
Max Gust Speed 39 mph    
Visibility 10 miles    
Events      
Averages and records for this station are not official NWS values.
T = Trace of Precipitation, MM = Missing Value Source: NWS Daily Summary

Daily Weather History Graph

Daily Weather History Graph

Search for Another Location

Airport or City:

Trip Planner

Search our weather history database for the weather conditions in past years. The results will help you decide how hot, cold, wet, or windy it might be!

Date:

Astronomy

Apr. 09, 2014 Rise Set
Actual Time 6:17 AM MDT 7:20 PM MDT
Civil Twilight 5:49 AM MDT 7:48 PM MDT
Nautical Twilight 5:15 AM MDT 8:22 PM MDT
Astronomical Twilight 4:40 AM MDT 8:57 PM MDT
Moon 2:08 PM MDT (4/9) 3:10 AM MDT (4/9)
Length of Visible Light 13h 59m
Length of Day
13h 03m
Waxing Gibbous, 72% of the Moon is Illuminated
Apr 9
Waxing Gibbous
Apr 15
Full
Apr 22
Last Quarter
Apr 29
New
May 6
First Quarter

Hourly Weather History & Observations

Time (MDT) Temp. Windchill Dew Point Humidity Pressure Visibility Wind Dir Wind Speed Gust Speed Precip Events Conditions
12:15 AM 45.7 °F 42.7 °F 29.5 °F 53% 30.00 in 10.0 mi West 5.8 mph - N/A   Clear
12:35 AM 44.4 °F 41.2 °F 29.3 °F 55% 30.00 in 10.0 mi WSW 5.8 mph - N/A   Clear
12:55 AM 41.2 °F 38.2 °F 28.9 °F 62% 29.99 in 10.0 mi SSW 4.6 mph - N/A   Clear
1:15 AM 40.1 °F 36.9 °F 28.8 °F 64% 29.98 in 10.0 mi SW 4.6 mph - N/A   Clear
1:35 AM 37.4 °F - 27.5 °F 67% 29.98 in 10.0 mi Calm Calm - N/A   Clear
1:55 AM 37.4 °F - 28.4 °F 70% 29.97 in 10.0 mi Calm Calm - N/A   Clear
2:15 AM 34.5 °F - 26.1 °F 71% 29.95 in 10.0 mi Calm Calm - N/A   Clear
2:35 AM 33.8 °F - 26.4 °F 74% 29.95 in 10.0 mi Calm Calm - N/A   Clear
2:55 AM 34.3 °F - 27.5 °F 76% 29.95 in 10.0 mi Calm Calm - N/A   Clear
3:15 AM 31.8 °F - 25.5 °F 78% 29.94 in 10.0 mi Calm Calm - N/A   Clear
3:35 AM 31.8 °F 28.5 °F 25.3 °F 77% 29.94 in 10.0 mi WSW 3.5 mph - N/A   Clear
3:55 AM 30.0 °F 24.1 °F 24.1 °F 79% 29.94 in 10.0 mi West 5.8 mph - N/A   Clear
4:15 AM 32.5 °F - 26.8 °F 79% 29.93 in 10.0 mi Calm Calm - N/A   Clear
4:35 AM 32.5 °F 26.2 °F 26.6 °F 79% 29.94 in 10.0 mi West 6.9 mph - N/A   Clear
4:55 AM 32.9 °F - 27.0 °F 79% 29.94 in 10.0 mi Calm Calm - N/A   Clear
5:15 AM 33.3 °F - 27.1 °F 78% 29.94 in 10.0 mi Calm Calm - N/A   Clear
5:35 AM 34.7 °F - 27.7 °F 76% 29.93 in 10.0 mi Calm Calm - N/A   Clear
5:55 AM 33.3 °F 26.4 °F 26.6 °F 77% 29.94 in 10.0 mi West 8.1 mph - N/A   Clear
6:15 AM 33.6 °F 29.4 °F 27.1 °F 77% 29.93 in 10.0 mi West 4.6 mph - N/A   Clear
6:35 AM 32.5 °F 25.5 °F 26.8 °F 79% 29.94 in 10.0 mi West 8.1 mph - N/A   Clear
6:55 AM 33.4 °F 25.9 °F 27.5 °F 79% 29.94 in 10.0 mi West 9.2 mph - N/A   Clear
7:15 AM 37.9 °F 31.5 °F 29.5 °F 72% 29.94 in 10.0 mi WSW 9.2 mph - N/A   Clear
7:35 AM 41.4 °F 36.2 °F 31.1 °F 67% 29.94 in 10.0 mi WSW 8.1 mph - N/A   Clear
7:55 AM 44.6 °F 38.8 °F 31.6 °F 60% 29.94 in 10.0 mi WSW 11.5 mph - N/A   Clear
8:15 AM 47.5 °F - 32.2 °F 55% 29.94 in 10.0 mi West 9.2 mph - N/A   Clear
8:35 AM 50.9 °F - 32.7 °F 50% 29.93 in 10.0 mi West 9.2 mph - N/A   Clear
8:55 AM 55.2 °F - 32.4 °F 42% 29.93 in 10.0 mi West 9.2 mph - N/A   Clear
9:15 AM 58.1 °F - 32.0 °F 37% 29.93 in 10.0 mi West 10.4 mph - N/A   Clear
9:35 AM 61.5 °F - 32.0 °F 33% 29.92 in 10.0 mi West 9.2 mph - N/A   Clear
9:55 AM 65.5 °F - 32.0 °F 29% 29.92 in 10.0 mi West 9.2 mph - N/A   Clear
10:15 AM 69.4 °F - 30.6 °F 24% 29.91 in 10.0 mi WSW 15.0 mph - N/A   Clear
10:35 AM 73.0 °F - 28.9 °F 20% 29.90 in 10.0 mi West 12.7 mph 17.3 mph N/A   Clear
10:55 AM 74.3 °F - 25.7 °F 16% 29.90 in 10.0 mi West 16.1 mph 23.0 mph N/A   Clear
11:15 AM 74.3 °F - 24.6 °F 16% 29.89 in 10.0 mi WNW 18.4 mph 26.5 mph N/A   Clear
11:35 AM 76.3 °F - 21.9 °F 13% 29.88 in 10.0 mi West 17.3 mph 27.6 mph N/A   Clear
11:55 AM 75.2 °F - 23.9 °F 15% 29.87 in 10.0 mi West 18.4 mph 27.6 mph N/A   Clear
12:15 PM 76.6 °F - 23.2 °F 14% 29.86 in 10.0 mi West 16.1 mph 32.2 mph N/A   Clear
12:35 PM 78.8 °F - 21.6 °F 12% 29.85 in 10.0 mi West 19.6 mph 25.3 mph N/A   Clear
12:55 PM 77.4 °F - 23.4 °F 13% 29.84 in 10.0 mi WNW 20.7 mph 25.3 mph N/A   Clear
1:15 PM 78.6 °F - 22.6 °F 13% 29.83 in 10.0 mi NW 15.0 mph 28.8 mph N/A   Clear
1:35 PM 80.6 °F - 22.3 °F 12% 29.82 in 10.0 mi West 16.1 mph 28.8 mph N/A   Clear
1:55 PM 79.7 °F - 23.9 °F 13% 29.80 in 10.0 mi WNW 17.3 mph 27.6 mph N/A   Clear
2:15 PM 82.2 °F - 22.6 °F 11% 29.78 in 10.0 mi West 13.8 mph 29.9 mph N/A   Clear
2:35 PM 82.4 °F - 21.6 °F 11% 29.77 in 7.0 mi West 20.7 mph 33.4 mph N/A   Clear
2:55 PM 81.7 °F - 22.3 °F 11% 29.76 in 7.0 mi NW 24.2 mph 39.1 mph N/A   Clear
3:15 PM 82.4 °F - 23.2 °F 11% 29.74 in 10.0 mi WNW 27.6 mph 36.8 mph N/A   Clear
3:35 PM 81.9 °F - 22.8 °F 11% 29.73 in 10.0 mi WNW 25.3 mph 34.5 mph N/A   Clear
3:55 PM 82.0 °F - 24.1 °F 12% 29.73 in 10.0 mi WNW 25.3 mph 33.4 mph N/A   Clear
4:15 PM 81.7 °F - 24.6 °F 12% 29.73 in 10.0 mi WNW 25.3 mph 31.1 mph N/A   Clear
4:35 PM 82.4 °F - 23.9 °F 12% 29.73 in 10.0 mi West 20.7 mph 28.8 mph N/A   Clear
4:55 PM 81.9 °F - 23.0 °F 11% 29.72 in 10.0 mi West 18.4 mph 24.2 mph N/A   Clear
5:15 PM 80.2 °F - 23.5 °F 12% 29.72 in 10.0 mi WSW 25.3 mph 31.1 mph N/A   Clear
5:35 PM 81.0 °F - 22.5 °F 12% 29.72 in 10.0 mi WSW 25.3 mph 33.4 mph N/A   Clear
5:55 PM 78.1 °F - 22.6 °F 13% 29.72 in 10.0 mi WSW 19.6 mph - N/A   Clear
6:15 PM 78.4 °F - 23.7 °F 13% 29.72 in 10.0 mi WSW 12.7 mph 18.4 mph N/A   Clear
6:35 PM 76.5 °F - 23.5 °F 14% 29.72 in 10.0 mi West 10.4 mph 17.3 mph N/A   Clear
6:55 PM 70.5 °F - 26.1 °F 19% 29.71 in 10.0 mi West 9.2 mph - N/A   Clear
7:15 PM 66.4 °F - 26.6 °F 22% 29.71 in 10.0 mi West 3.5 mph - N/A   Clear
7:35 PM 64.2 °F - 25.7 °F 23% 29.71 in 10.0 mi West 3.5 mph - N/A   Clear
7:55 PM 63.5 °F - 26.6 °F 25% 29.71 in 10.0 mi WSW 3.5 mph - N/A   Clear
8:15 PM 58.5 °F - 28.8 °F 32% 29.71 in 10.0 mi WSW 3.5 mph - N/A   Clear
8:35 PM 58.1 °F - 27.7 °F 31% 29.72 in 10.0 mi West 4.6 mph - N/A   Clear
8:55 PM 57.2 °F - 28.4 °F 33% 29.73 in 10.0 mi NW 4.6 mph - N/A   Clear
9:15 PM 58.8 °F - 28.2 °F 31% 29.73 in 10.0 mi Calm Calm - N/A   Clear
9:35 PM 58.6 °F - 29.7 °F 33% 29.73 in 10.0 mi WNW 4.6 mph - N/A   Clear
9:55 PM 54.7 °F - 29.3 °F 38% 29.73 in 10.0 mi WSW 3.5 mph - N/A   Clear
10:15 PM 53.8 °F - 30.7 °F 41% 29.73 in 10.0 mi West 5.8 mph - N/A   Clear
10:35 PM 53.1 °F - 29.5 °F 40% 29.73 in 10.0 mi WSW 9.2 mph - N/A   Clear
10:55 PM 52.0 °F - 31.1 °F 45% 29.77 in 10.0 mi North 12.7 mph 17.3 mph N/A   Clear
11:15 PM 60.3 °F - 32.4 °F 35% 29.78 in 10.0 mi NNE 18.4 mph 28.8 mph N/A   Clear
11:35 PM 58.8 °F - 33.8 °F 39% 29.80 in 10.0 mi NNE 20.7 mph 26.5 mph N/A   Clear
11:55 PM 58.1 °F - 34.7 °F 41% 29.83 in 10.0 mi NNE 23.0 mph 29.9 mph N/A   Clear